createdAt,value
2023-04-07T00:05:12.767Z,100.0
2023-04-07T00:10:44.382Z,100.0
2023-04-07T00:16:16.281Z,100.0
2023-04-07T00:21:47.826Z,100.0
2023-04-07T00:27:20.012Z,100.0
2023-04-07T00:32:51.361Z,100.0
2023-04-07T00:38:23.019Z,100.0
2023-04-07T00:43:55.081Z,100.0
2023-04-07T00:49:26.337Z,100.0
2023-04-07T00:55:04.553Z,100.0
2023-04-07T01:00:36.272Z,100.0
2023-04-07T01:06:07.983Z,100.0
2023-04-07T01:11:39.995Z,100.0
2023-04-07T01:17:11.542Z,100.0
2023-04-07T01:22:43.236Z,100.0
2023-04-07T01:28:15.005Z,100.0
2023-04-07T01:33:46.712Z,100.0
2023-04-07T01:39:18.475Z,100.0
2023-04-07T01:44:50.104Z,100.0
2023-04-07T01:50:22.310Z,100.0
2023-04-07T01:55:58.105Z,100.0
2023-04-07T02:01:30.074Z,100.0
2023-04-07T02:07:01.557Z,100.0
2023-04-07T02:12:33.259Z,100.0
2023-04-07T02:18:05.009Z,100.0
2023-04-07T02:23:37.253Z,100.0
2023-04-07T02:29:08.354Z,100.0
2023-04-07T02:34:40.378Z,100.0
2023-04-07T02:40:12.162Z,100.0
2023-04-07T02:45:43.620Z,100.0
2023-04-07T02:51:15.213Z,100.0
2023-04-07T02:56:53.556Z,100.0
2023-04-07T03:02:25.429Z,99.99
2023-04-07T03:07:56.891Z,100.0
2023-04-07T03:13:28.696Z,100.0
2023-04-07T03:19:00.498Z,99.52
2023-04-07T03:24:32.060Z,99.84
2023-04-07T03:30:03.953Z,98.38
2023-04-07T03:35:35.574Z,99.75
2023-04-07T03:41:07.407Z,99.43
2023-04-07T03:46:39.160Z,98.57
2023-04-07T03:52:10.840Z,98.18
2023-04-07T03:57:47.348Z,97.89
2023-04-07T04:03:19.138Z,97.48
2023-04-07T04:08:50.487Z,99.25
2023-04-07T04:14:22.538Z,98.83
2023-04-07T04:19:54.187Z,97.82
2023-04-07T04:25:25.924Z,97.76
2023-04-07T04:30:57.711Z,97.53
2023-04-07T04:36:29.458Z,97.42
2023-04-07T04:42:01.080Z,97.21
2023-04-07T04:47:32.962Z,97.02
2023-04-07T04:53:05.035Z,97.38
2023-04-07T04:58:41.108Z,97.87
2023-04-07T05:04:13.323Z,97.37
2023-04-07T05:09:44.679Z,96.77
2023-04-07T05:15:16.347Z,96.84
2023-04-07T05:20:48.112Z,97.65
2023-04-07T05:26:19.883Z,97.31
2023-04-07T05:31:51.913Z,97.38
2023-04-07T05:37:23.618Z,98.27
2023-04-07T05:42:55.364Z,97.57
2023-04-07T05:48:26.733Z,97.4
2023-04-07T05:53:58.461Z,98.11
2023-04-07T05:59:34.620Z,98.09
2023-04-07T06:05:06.524Z,97.87
2023-04-07T06:10:38.296Z,96.47
2023-04-07T06:16:10.025Z,96.34
2023-04-07T06:21:41.628Z,99.47
2023-04-07T06:27:13.366Z,97.01
2023-04-07T06:32:45.032Z,97.62
2023-04-07T06:38:16.830Z,97.53
2023-04-07T06:43:49.031Z,98.78
2023-04-07T06:49:20.167Z,99.66
2023-04-07T06:54:51.953Z,100.0
2023-04-07T07:00:30.099Z,99.35
2023-04-07T07:06:01.782Z,98.52
2023-04-07T07:11:33.511Z,99.0
2023-04-07T07:17:05.253Z,98.31
2023-04-07T07:22:37.705Z,97.83
2023-04-07T07:28:08.605Z,97.6
2023-04-07T07:33:40.532Z,97.02
2023-04-07T07:39:12.348Z,91.84
2023-04-07T07:44:43.854Z,91.16
2023-04-07T07:50:15.595Z,89.13
2023-04-07T07:55:47.337Z,87.33
2023-04-07T08:01:25.460Z,86.27
2023-04-07T08:06:57.200Z,86.79
2023-04-07T08:12:28.869Z,82.7
2023-04-07T08:18:00.822Z,84.39
2023-04-07T08:23:32.361Z,86.32
2023-04-07T08:29:04.063Z,86.29
2023-04-07T08:34:35.806Z,85.91
2023-04-07T08:40:07.442Z,87.63
2023-04-07T08:45:39.314Z,86.79
2023-04-07T08:51:11.022Z,86.77
2023-04-07T08:56:42.672Z,86.42
2023-04-07T09:02:21.623Z,84.5
2023-04-07T09:07:52.516Z,84.65
2023-04-07T09:13:24.485Z,86.16
2023-04-07T09:18:55.980Z,82.76
2023-04-07T09:24:28.398Z,84.05
2023-04-07T09:29:59.424Z,83.35
2023-04-07T09:35:31.338Z,85.39
2023-04-07T09:41:03.556Z,83.18
2023-04-07T09:46:34.795Z,84.32
2023-04-07T09:52:06.196Z,82.97
2023-04-07T09:57:38.065Z,83.7
2023-04-07T10:03:39.576Z,83.33
2023-04-07T10:09:10.953Z,82.23
2023-04-07T10:14:42.622Z,79.55
2023-04-07T10:20:14.381Z,78.72
2023-04-07T10:25:46.051Z,77.7
2023-04-07T10:31:17.888Z,79.99
2023-04-07T10:36:49.452Z,86.37
2023-04-07T10:42:21.264Z,82.38
2023-04-07T10:47:53.225Z,83.54
2023-04-07T10:53:24.695Z,82.53
2023-04-07T10:58:56.452Z,82.34
2023-04-07T11:04:33.301Z,82.65
2023-04-07T11:10:04.770Z,83.65
2023-04-07T11:15:39.649Z,84.5
2023-04-07T11:21:07.758Z,83.96
2023-04-07T11:26:39.430Z,83.6
2023-04-07T11:32:11.156Z,84.76
2023-04-07T11:37:43.423Z,87.27
2023-04-07T11:43:14.802Z,95.19
2023-04-07T11:48:46.462Z,100.0
2023-04-07T11:54:18.089Z,98.93
2023-04-07T11:59:49.906Z,98.76
2023-04-07T12:05:25.991Z,99.32
2023-04-07T12:10:57.651Z,98.98
2023-04-07T12:16:29.344Z,100.0
2023-04-07T12:22:01.166Z,100.0
2023-04-07T12:27:43.533Z,100.0
2023-04-07T12:33:04.587Z,100.0
2023-04-07T12:38:36.284Z,100.0
2023-04-07T12:44:08.059Z,100.0
2023-04-07T12:49:40.083Z,100.0
2023-04-07T12:55:11.403Z,100.0
2023-04-07T13:00:43.259Z,100.0
2023-04-07T13:06:21.358Z,100.0
2023-04-07T13:11:53.151Z,97.62
2023-04-07T13:17:31.751Z,98.95
2023-04-07T13:23:10.429Z,100.0
2023-04-07T13:28:35.255Z,100.0
2023-04-07T13:34:07.272Z,99.41
2023-04-07T13:39:38.707Z,100.0
2023-04-07T13:45:10.443Z,100.0
2023-04-07T13:50:42.778Z,100.0
2023-04-07T13:56:13.876Z,100.0
2023-04-07T14:01:45.735Z,100.0
2023-04-07T14:07:23.773Z,100.0
2023-04-07T14:12:55.477Z,100.0
2023-04-07T14:18:27.508Z,100.0
2023-04-07T14:23:58.949Z,100.0
2023-04-07T14:29:30.657Z,99.43
2023-04-07T14:35:02.310Z,97.76
2023-04-07T14:40:34.056Z,97.8
2023-04-07T14:46:05.955Z,99.02
2023-04-07T14:51:37.591Z,98.09
2023-04-07T14:57:09.394Z,98.32
2023-04-07T15:02:41.391Z,95.51
2023-04-07T15:08:17.175Z,95.86
2023-04-07T15:13:49.552Z,94.64
2023-04-07T15:19:20.638Z,94.11
2023-04-07T15:24:52.282Z,95.2
2023-04-07T15:30:23.969Z,90.38
2023-04-07T15:35:55.878Z,89.8
2023-04-07T15:41:27.396Z,89.75
2023-04-07T15:46:59.324Z,89.79
2023-04-07T15:52:30.890Z,91.71
2023-04-07T15:58:02.637Z,89.98
2023-04-07T16:03:34.474Z,88.6
2023-04-07T16:09:10.475Z,88.07
2023-04-07T16:14:42.348Z,87.53
2023-04-07T16:20:14.012Z,89.51
2023-04-07T16:25:45.678Z,89.67
2023-04-07T16:31:17.508Z,90.25
2023-04-07T16:36:49.056Z,90.1
2023-04-07T16:42:21.380Z,89.52
2023-04-07T16:47:52.937Z,90.56
2023-04-07T16:53:24.323Z,89.21
2023-04-07T16:58:56.071Z,88.08
2023-04-07T17:04:27.899Z,88.54
2023-04-07T17:10:06.004Z,89.15
2023-04-07T17:15:38.780Z,92.34
2023-04-07T17:21:09.343Z,95.86
2023-04-07T17:26:41.116Z,96.92
2023-04-07T17:32:13.120Z,96.52
2023-04-07T17:37:44.601Z,96.3
2023-04-07T17:43:16.265Z,96.58
2023-04-07T17:48:47.996Z,95.76
2023-04-07T17:54:19.654Z,96.83
2023-04-07T17:59:51.544Z,98.44
2023-04-07T18:05:23.147Z,99.19
2023-04-07T18:11:01.463Z,98.31
2023-04-07T18:16:33.175Z,98.49
2023-04-07T18:22:04.821Z,98.56
2023-04-07T18:27:36.507Z,98.93
2023-04-07T18:33:08.398Z,99.24
2023-04-07T18:38:39.897Z,99.79
2023-04-07T18:44:11.836Z,98.76
2023-04-07T18:49:43.468Z,97.98
2023-04-07T18:55:15.163Z,97.94
2023-04-07T19:00:46.942Z,99.12
2023-04-07T19:06:18.680Z,100.0
2023-04-07T19:11:56.900Z,100.0
2023-04-07T19:17:28.752Z,100.0
2023-04-07T19:23:00.289Z,100.0
2023-04-07T19:28:31.936Z,100.0
2023-04-07T19:34:03.725Z,100.0
2023-04-07T19:39:35.320Z,100.0
2023-04-07T19:45:07.118Z,100.0
2023-04-07T19:50:38.842Z,98.3
2023-04-07T19:56:10.660Z,98.07
2023-04-07T20:01:42.836Z,98.38
2023-04-07T20:07:14.054Z,97.89
2023-04-07T20:12:52.177Z,98.13
2023-04-07T20:18:23.918Z,98.21
2023-04-07T20:23:55.599Z,98.14
2023-04-07T20:29:27.355Z,99.68
2023-04-07T20:34:59.111Z,99.64
2023-04-07T20:40:30.870Z,99.75
2023-04-07T20:46:02.704Z,100.0
2023-04-07T20:51:34.313Z,100.0
2023-04-07T20:57:06.680Z,100.0
2023-04-07T21:02:38.033Z,100.0
2023-04-07T21:08:09.384Z,100.0
2023-04-07T21:13:45.633Z,100.0
2023-04-07T21:19:17.297Z,100.0
2023-04-07T21:24:49.009Z,100.0
2023-04-07T21:30:20.939Z,100.0
2023-04-07T21:35:53.424Z,100.0
2023-04-07T21:41:24.260Z,100.0
2023-04-07T21:46:56.162Z,100.0
2023-04-07T21:52:27.661Z,100.0
2023-04-07T21:57:59.514Z,100.0
2023-04-07T22:03:31.414Z,100.0
2023-04-07T22:09:03.323Z,100.0
2023-04-07T22:14:41.042Z,100.0
2023-04-07T22:20:12.789Z,100.0
2023-04-07T22:25:44.383Z,100.0
2023-04-07T22:31:16.259Z,100.0
2023-04-07T22:36:48.012Z,100.0
2023-04-07T22:42:19.634Z,100.0
2023-04-07T22:47:51.630Z,100.0
2023-04-07T22:53:23.041Z,100.0
2023-04-07T22:58:54.694Z,100.0
2023-04-07T23:04:26.472Z,100.0
2023-04-07T23:09:58.221Z,100.0
2023-04-07T23:15:36.361Z,100.0
2023-04-07T23:21:08.034Z,100.0
2023-04-07T23:26:39.786Z,100.0
2023-04-07T23:32:11.813Z,100.0
2023-04-07T23:37:43.345Z,100.0
2023-04-07T23:43:15.071Z,100.0
2023-04-07T23:48:46.864Z,100.0
2023-04-07T23:54:18.506Z,100.0
2023-04-07T23:59:50.216Z,100.0
